Time;durP1;ratioP1;P1;durP2;ratioP2;P2;SDS_P1;SDS_P2;PMS_P1;PMS_P2;Temp;Humidity;BMP_temperature;BMP_pressure;BME280_temperature;BME280_humidity;BME280_pressure;Samples;Min_cycle;Max_cycle;Signal;HPM_P1;HPM_P2
2022/06/04 00:00:37;;;;;;;12.05;5.22;;;15.60;99.90;;;;;;5009376;28;20076;-83
2022/06/04 00:03:02;;;;;;;6.80;5.10;;;15.50;99.90;;;;;;5008993;28;20769;-81
2022/06/04 00:05:30;;;;;;;7.25;4.85;;;15.40;99.90;;;;;;5024763;28;20044;-81
2022/06/04 00:07:58;;;;;;;10.80;5.90;;;15.40;99.90;;;;;;5028700;28;20025;-80
2022/06/04 00:16:00;;;;;;;7.25;5.55;;;15.50;99.90;;;;;;5030082;28;20579;-80
2022/06/04 00:18:25;;;;;;;9.07;6.20;;;15.60;99.90;;;;;;5029159;28;20112;-82
2022/06/04 00:20:53;;;;;;;8.05;6.45;;;15.60;99.90;;;;;;5029689;28;20105;-80
2022/06/04 00:23:20;;;;;;;6.00;5.40;;;15.60;99.90;;;;;;5029543;28;20047;-82
2022/06/04 00:25:49;;;;;;;11.02;5.43;;;15.50;99.90;;;;;;5028069;28;20509;-84
2022/06/04 00:28:17;;;;;;;11.23;6.25;;;15.60;99.90;;;;;;5029907;28;20034;-80
2022/06/04 00:30:43;;;;;;;6.80;4.75;;;15.60;99.90;;;;;;5028067;28;20175;-81
2022/06/04 00:33:09;;;;;;;29.67;6.07;;;15.50;99.90;;;;;;5028993;28;20101;-82
2022/06/04 00:35:35;;;;;;;13.18;5.03;;;15.50;99.90;;;;;;5027915;28;20131;-81
2022/06/04 00:38:05;;;;;;;9.90;5.00;;;15.50;99.90;;;;;;5027689;28;20033;-80
2022/06/04 00:40:46;;;;;;;9.23;5.15;;;15.50;99.90;;;;;;5027543;28;20116;-78
2022/06/04 00:43:13;;;;;;;7.72;5.00;;;15.60;99.90;;;;;;5029924;28;20026;-86
2022/06/04 00:46:00;;;;;;;10.77;5.05;;;15.70;99.90;;;;;;5025399;28;20030;-80
2022/06/04 00:48:26;;;;;;;9.60;5.75;;;15.70;99.90;;;;;;5012105;28;20042;-80
2022/06/04 00:50:52;;;;;;;11.55;5.15;;;15.70;99.90;;;;;;5025197;28;20474;-80
2022/06/04 00:53:18;;;;;;;9.70;5.10;;;15.70;99.90;;;;;;5010285;28;20026;-80
2022/06/04 00:56:15;;;;;;;11.68;5.32;;;15.70;99.90;;;;;;5008635;28;20052;-80
2022/06/04 00:58:59;;;;;;;14.82;5.15;;;15.70;99.90;;;;;;5008540;28;20395;-81
2022/06/04 01:01:30;;;;;;;6.30;4.70;;;17.00;99.90;;;;;;5012318;28;20030;-80
2022/06/04 01:04:10;;;;;;;13.98;7.45;;;15.90;99.90;;;;;;5029349;28;20026;-80
2022/06/04 01:06:52;;;;;;;14.57;9.95;;;16.10;99.90;;;;;;5016228;28;20044;-80
2022/06/04 01:09:52;;;;;;;14.18;8.90;;;16.90;99.90;;;;;;5028663;28;20276;-80
2022/06/04 01:12:42;;;;;;;12.50;8.60;;;17.00;99.90;;;;;;5012370;28;20091;-80
2022/06/04 01:15:27;;;;;;;18.58;8.23;;;17.20;99.90;;;;;;5013667;28;20068;-80
2022/06/04 01:18:03;;;;;;;17.10;9.63;;;17.30;99.90;;;;;;5012811;28;20120;-80
2022/06/04 01:20:40;;;;;;;13.07;8.05;;;17.40;99.90;;;;;;5012107;28;20022;-81
2022/06/04 01:23:12;;;;;;;13.55;9.30;;;17.40;99.90;;;;;;5010000;28;20030;-82
2022/06/04 01:26:03;;;;;;;16.60;10.20;;;17.30;99.90;;;;;;5011430;28;20544;-81
2022/06/04 01:28:33;;;;;;;19.58;11.00;;;17.30;99.90;;;;;;5015884;28;20142;-81
2022/06/04 01:31:03;;;;;;;19.77;11.50;;;15.20;99.90;;;;;;5012680;28;20438;-81
2022/06/04 01:33:37;;;;;;;24.52;12.95;;;17.20;99.90;;;;;;5015468;28;20022;-81
2022/06/04 01:36:29;;;;;;;16.95;11.32;;;17.10;99.90;;;;;;5015988;28;20030;-80
2022/06/04 01:39:08;;;;;;;24.65;13.18;;;17.00;99.90;;;;;;5015876;28;20034;-81
2022/06/04 01:41:42;;;;;;;15.88;10.48;;;16.80;99.90;;;;;;5015365;28;20080;-81
2022/06/04 01:44:28;;;;;;;18.63;12.55;;;16.60;99.90;;;;;;5030288;28;20026;-80
2022/06/04 01:46:58;;;;;;;23.90;15.50;;;16.50;99.90;;;;;;5021785;28;20026;-81
2022/06/04 01:49:32;;;;;;;26.15;13.95;;;16.60;99.90;;;;;;5018869;28;20034;-82
2022/06/04 01:52:11;;;;;;;23.77;14.35;;;16.60;99.90;;;;;;5011457;28;20102;-81
2022/06/04 01:54:43;;;;;;;23.88;13.95;;;16.60;99.90;;;;;;5025790;28;20064;-81
2022/06/04 01:57:32;;;;;;;23.02;15.20;;;16.60;99.90;;;;;;5010733;28;20073;-81
2022/06/04 02:00:03;;;;;;;19.25;13.30;;;16.50;99.90;;;;;;5025467;28;20029;-81
2022/06/04 02:02:57;;;;;;;25.50;13.90;;;16.50;99.90;;;;;;5025523;28;20103;-81
2022/06/04 02:05:41;;;;;;;23.17;14.05;;;17.30;99.90;;;;;;5009001;28;20072;-81
2022/06/04 02:08:09;;;;;;;23.33;14.88;;;16.50;99.90;;;;;;5010237;28;20033;-80
2022/06/04 02:10:48;;;;;;;21.67;13.95;;;;;;;;;;5025662;28;20079;-81
2022/06/04 02:13:15;;;;;;;23.95;15.32;;;16.50;99.90;;;;;;5009111;28;20022;-81
2022/06/04 02:15:56;;;;;;;23.52;15.43;;;16.20;99.90;;;;;;5024428;28;20128;-81
2022/06/04 02:18:23;;;;;;;23.85;16.02;;;16.20;99.90;;;;;;5025359;28;20080;-81
2022/06/04 02:20:48;;;;;;;26.45;15.68;;;16.20;99.90;;;;;;5025960;28;20018;-81
2022/06/04 02:23:14;;;;;;;21.10;13.98;;;16.10;99.90;;;;;;5008790;28;20026;-81
2022/06/04 02:25:40;;;;;;;23.45;13.93;;;16.10;99.90;;;;;;5025237;28;20140;-81
2022/06/04 02:28:07;;;;;;;25.98;15.95;;;16.00;99.90;;;;;;5010350;28;20429;-80
2022/06/04 02:30:55;;;;;;;25.17;15.18;;;15.90;99.90;;;;;;5010072;28;20029;-80
2022/06/04 02:33:46;;;;;;;23.42;14.60;;;15.80;99.90;;;;;;5008647;28;20021;-81
2022/06/04 02:36:27;;;;;;;26.70;16.80;;;15.80;99.90;;;;;;5008556;28;20034;-80
2022/06/04 02:39:07;;;;;;;31.30;19.17;;;15.70;99.90;;;;;;5029049;28;20040;-80
2022/06/04 02:41:39;;;;;;;27.85;17.88;;;15.70;99.90;;;;;;5009872;28;20026;-83
2022/06/04 02:44:23;;;;;;;29.40;16.42;;;;;;;;;;5024851;28;20026;-80
2022/06/04 02:46:57;;;;;;;30.75;16.65;;;15.70;99.90;;;;;;5010461;28;20026;-80
2022/06/04 02:49:35;;;;;;;37.20;20.67;;;15.70;99.90;;;;;;5009473;28;20036;-80
2022/06/04 02:52:03;;;;;;;34.50;18.63;;;15.80;99.90;;;;;;5009914;28;20018;-81
2022/06/04 02:54:36;;;;;;;33.25;20.75;;;15.80;99.90;;;;;;5009895;28;20029;-80
2022/06/04 02:57:03;;;;;;;31.70;18.33;;;15.00;99.90;;;;;;5024778;28;20120;-80
2022/06/04 02:59:30;;;;;;;26.48;16.00;;;15.80;99.90;;;;;;5024654;28;20116;-81
2022/06/04 03:01:59;;;;;;;25.23;15.32;;;15.80;99.90;;;;;;5024678;28;20040;-80
2022/06/04 03:04:25;;;;;;;25.55;13.73;;;15.80;99.90;;;;;;5024556;28;20021;-81
2022/06/04 03:06:51;;;;;;;23.85;14.43;;;15.90;99.90;;;;;;5009534;28;20165;-81
2022/06/04 03:09:19;;;;;;;22.38;12.27;;;15.90;99.90;;;;;;5024782;28;20030;-80
2022/06/04 03:11:47;;;;;;;18.70;11.82;;;16.00;99.90;;;;;;5009873;28;20030;-80
2022/06/04 03:14:15;;;;;;;19.20;11.38;;;16.10;99.90;;;;;;5012101;28;20018;-80
2022/06/04 03:16:42;;;;;;;16.83;10.57;;;16.30;99.90;;;;;;5027477;28;20266;-80
2022/06/04 03:19:09;;;;;;;23.65;12.93;;;16.50;99.90;;;;;;5012764;28;20483;-82
2022/06/04 03:21:39;;;;;;;20.35;10.00;;;16.70;99.90;;;;;;5010875;28;20540;-82
2022/06/04 03:24:06;;;;;;;17.83;10.35;;;16.50;99.90;;;;;;5027278;28;20033;-81
2022/06/04 03:26:33;;;;;;;13.20;7.45;;;16.50;99.90;;;;;;5027166;28;20371;-81
2022/06/04 03:28:59;;;;;;;15.30;7.88;;;16.50;99.90;;;;;;5027421;28;20125;-80
2022/06/04 03:31:28;;;;;;;9.93;5.95;;;16.40;99.90;;;;;;5012069;28;20449;-81
2022/06/04 03:33:57;;;;;;;6.53;4.97;;;16.50;99.90;;;;;;5011516;28;20026;-81
2022/06/04 03:36:25;;;;;;;6.05;4.93;;;16.50;99.90;;;;;;5010119;28;20049;-81
2022/06/04 03:38:54;;;;;;;5.20;3.28;;;16.50;99.90;;;;;;5012930;28;20172;-81
2022/06/04 03:41:19;;;;;;;3.25;2.50;;;16.50;99.90;;;;;;5012625;28;20032;-81
2022/06/04 03:43:48;;;;;;;2.30;2.10;;;16.40;99.90;;;;;;5012731;28;20034;-80
2022/06/04 03:46:14;;;;;;;3.65;2.10;;;16.50;99.90;;;;;;5028137;28;20034;-81
2022/06/04 03:48:39;;;;;;;5.28;2.75;;;16.50;99.90;;;;;;5012742;28;20127;-81
2022/06/04 03:51:05;;;;;;;3.85;1.85;;;;;;;;;;5013003;28;20030;-81
2022/06/04 03:53:31;;;;;;;2.47;1.90;;;16.60;99.90;;;;;;5013418;28;20025;-80
2022/06/04 03:55:57;;;;;;;2.15;1.30;;;16.50;99.90;;;;;;5029399;28;20422;-82
2022/06/04 03:58:29;;;;;;;3.78;1.52;;;;;;;;;;5011952;28;20410;-82
2022/06/04 04:00:56;;;;;;;2.92;2.05;;;16.40;99.90;;;;;;5013404;28;20117;-81
2022/06/04 04:03:21;;;;;;;4.50;1.48;;;16.10;99.90;;;;;;5012686;28;20100;-82
2022/06/04 04:05:50;;;;;;;3.35;2.05;;;16.00;99.90;;;;;;5008321;28;20570;-81
2022/06/04 04:08:17;;;;;;;2.93;1.77;;;16.00;99.90;;;;;;5009423;28;20030;-81
2022/06/04 04:10:44;;;;;;;4.95;2.22;;;15.90;99.90;;;;;;5024500;28;20396;-82
2022/06/04 04:13:11;;;;;;;6.78;3.33;;;15.90;99.90;;;;;;5008811;28;20124;-80
2022/06/04 04:15:38;;;;;;;2.97;2.10;;;15.80;99.90;;;;;;5025742;28;20096;-81
2022/06/04 04:18:05;;;;;;;5.18;2.85;;;15.80;99.90;;;;;;5009187;28;20026;-82
2022/06/04 04:20:34;;;;;;;4.68;1.90;;;15.80;99.90;;;;;;5009148;28;20037;-82
2022/06/04 04:23:01;;;;;;;6.78;3.45;;;15.80;99.90;;;;;;5024179;28;20075;-81
2022/06/04 04:25:28;;;;;;;10.23;2.30;;;15.80;99.90;;;;;;5009186;28;20105;-82
2022/06/04 04:27:55;;;;;;;5.22;2.70;;;15.80;99.90;;;;;;5024099;28;20048;-82
2022/06/04 04:30:23;;;;;;;5.20;2.78;;;15.80;99.90;;;;;;5024218;28;20109;-82
2022/06/04 04:32:50;;;;;;;5.10;2.47;;;15.80;99.90;;;;;;5007520;28;20030;-83
2022/06/04 04:35:19;;;;;;;19.23;3.08;;;15.80;99.90;;;;;;5023573;28;20018;-82
2022/06/04 04:37:44;;;;;;;3.05;1.90;;;15.80;99.90;;;;;;5024299;28;20026;-82
2022/06/04 04:40:12;;;;;;;2.35;2.13;;;15.90;99.90;;;;;;5011005;28;20491;-82
2022/06/04 04:42:38;;;;;;;5.78;3.38;;;15.90;99.90;;;;;;5027475;28;20025;-82
2022/06/04 04:45:07;;;;;;;3.97;2.80;;;15.80;99.90;;;;;;5027493;28;20113;-82
2022/06/04 04:47:37;;;;;;;2.03;1.83;;;15.80;99.90;;;;;;5027509;28;20025;-82
2022/06/04 04:50:06;;;;;;;4.47;2.28;;;15.90;99.90;;;;;;5011939;28;20029;-79
2022/06/04 04:52:32;;;;;;;2.78;1.90;;;15.90;99.90;;;;;;5027260;28;20032;-81
2022/06/04 04:54:58;;;;;;;2.13;1.92;;;15.80;99.90;;;;;;5012245;28;20080;-82
2022/06/04 04:57:23;;;;;;;3.35;2.35;;;15.90;99.90;;;;;;5012023;28;20462;-81
2022/06/04 04:59:49;;;;;;;6.40;2.58;;;15.90;99.90;;;;;;5012002;28;20388;-84
2022/06/04 05:02:14;;;;;;;4.95;1.92;;;15.90;99.90;;;;;;5027371;28;20026;-81
2022/06/04 05:04:40;;;;;;;4.35;1.90;;;15.80;99.90;;;;;;5011792;28;20069;-81
2022/06/04 05:07:06;;;;;;;3.40;2.35;;;15.80;99.90;;;;;;5010353;28;20227;-81
2022/06/04 05:09:32;;;;;;;7.68;1.98;;;16.90;99.90;;;;;;5011839;28;20026;-81
2022/06/04 05:11:58;;;;;;;4.18;2.38;;;15.80;99.90;;;;;;5026630;28;20034;-81
2022/06/04 05:14:23;;;;;;;3.72;2.35;;;15.80;99.90;;;;;;5028335;28;20045;-84
2022/06/04 05:16:49;;;;;;;2.13;1.80;;;15.80;99.90;;;;;;5011981;28;20427;-86
2022/06/04 05:19:15;;;;;;;3.53;2.00;;;15.80;99.90;;;;;;5012983;28;20105;-86
2022/06/04 05:21:44;;;;;;;2.28;2.17;;;15.90;99.90;;;;;;5027751;28;20037;-85
2022/06/04 05:24:21;;;;;;;5.72;2.97;;;15.90;99.90;;;;;;5027006;28;20030;-79
2022/06/04 05:26:48;;;;;;;2.22;1.60;;;16.00;99.90;;;;;;5009980;28;20516;-79
2022/06/04 05:29:14;;;;;;;7.75;2.08;;;16.10;99.90;;;;;;5026444;28;20060;-79
2022/06/04 05:31:40;;;;;;;4.20;1.80;;;16.20;99.90;;;;;;5011318;28;20248;-78
2022/06/04 05:34:08;;;;;;;1.65;1.40;;;16.50;99.90;;;;;;5026275;28;20076;-81
2022/06/04 05:36:35;;;;;;;4.05;1.55;;;16.40;99.90;;;;;;5009860;28;20038;-81
2022/06/04 05:39:01;;;;;;;13.95;2.08;;;16.50;99.90;;;;;;5026407;28;20026;-81
2022/06/04 05:41:26;;;;;;;4.55;1.95;;;16.60;99.90;;;;;;5011553;28;20172;-80
2022/06/04 05:43:53;;;;;;;3.58;1.35;;;16.70;99.90;;;;;;5011214;28;20169;-79
2022/06/04 05:46:20;;;;;;;1.02;1.00;;;17.10;99.90;;;;;;5011390;28;20018;-83
2022/06/04 05:48:47;;;;;;;1.38;1.27;;;17.60;99.90;;;;;;5026159;28;20026;-82
2022/06/04 05:51:19;;;;;;;3.15;1.20;;;17.40;99.90;;;;;;5026291;28;20026;-81
2022/06/04 05:53:45;;;;;;;3.53;2.45;;;17.50;99.90;;;;;;5026588;28;20067;-82
2022/06/04 05:56:19;;;;;;;1.05;1.00;;;17.70;99.90;;;;;;5026269;28;20057;-83
2022/06/04 05:58:50;;;;;;;1.30;0.80;;;17.80;99.90;;;;;;5009955;28;20053;-84
2022/06/04 06:01:17;;;;;;;3.45;0.90;;;17.60;99.90;;;;;;5011001;28;20029;-82
2022/06/04 06:03:43;;;;;;;1.40;1.10;;;17.50;99.90;;;;;;5025620;28;20034;-82
2022/06/04 06:06:17;;;;;;;1.95;0.88;;;17.30;99.90;;;;;;5010650;28;20037;-80
2022/06/04 06:08:43;;;;;;;1.38;1.20;;;17.10;99.90;;;;;;5026024;28;20018;-80
2022/06/04 06:11:12;;;;;;;1.17;1.17;;;17.10;99.90;;;;;;5010930;28;20030;-80
2022/06/04 06:13:38;;;;;;;2.75;1.63;;;17.00;99.90;;;;;;5025693;28;20051;-82
2022/06/04 06:16:12;;;;;;;3.33;1.13;;;16.90;99.90;;;;;;5025515;28;20140;-80
2022/06/04 06:18:38;;;;;;;3.10;0.90;;;16.90;99.90;;;;;;5025436;28;20021;-79
2022/06/04 06:21:09;;;;;;;2.10;0.90;;;17.00;99.90;;;;;;5010437;28;20030;-80
2022/06/04 06:23:35;;;;;;;2.78;1.00;;;17.30;99.90;;;;;;5025261;28;20037;-80
2022/06/04 06:26:13;;;;;;;2.38;1.27;;;17.50;99.90;;;;;;5025828;28;20036;-82
2022/06/04 06:28:41;;;;;;;6.35;1.48;;;17.70;99.90;;;;;;5025608;28;20116;-84
2022/06/04 06:31:09;;;;;;;1.83;1.30;;;17.80;99.90;;;;;;5025510;28;20115;-82
2022/06/04 06:33:35;;;;;;;3.72;1.38;;;17.90;99.90;;;;;;5010150;28;20026;-82
2022/06/04 06:36:04;;;;;;;1.13;1.10;;;18.30;99.90;;;;;;5024987;28;20490;-81
2022/06/04 06:38:29;;;;;;;3.10;1.42;;;18.40;99.90;;;;;;5010252;28;20117;-83
2022/06/04 06:40:57;;;;;;;1.13;0.93;;;19.10;99.90;;;;;;5009938;28;20705;-82
2022/06/04 06:43:46;;;;;;;0.93;0.80;;;19.10;99.90;;;;;;5010288;28;20371;-83
2022/06/04 06:46:28;;;;;;;3.10;1.08;;;19.40;99.90;;;;;;5010260;28;20018;-83
2022/06/04 06:49:05;;;;;;;2.05;1.27;;;19.90;99.90;;;;;;5025046;28;20116;-83
2022/06/04 06:51:41;;;;;;;0.95;0.60;;;20.60;99.90;;;;;;5025484;28;20022;-83
2022/06/04 06:54:08;;;;;;;0.82;0.60;;;21.00;99.90;;;;;;5010105;28;20030;-79
2022/06/04 06:56:37;;;;;;;0.90;0.60;;;21.00;99.90;;;;;;5024898;28;20125;-80
2022/06/04 06:59:04;;;;;;;2.05;0.60;;;20.70;99.90;;;;;;5024975;28;20079;-80
2022/06/04 07:01:31;;;;;;;1.55;1.15;;;20.70;99.90;;;;;;5024716;28;20524;-79
2022/06/04 07:03:58;;;;;;;2.35;0.60;;;21.20;99.90;;;;;;5024305;28;20068;-78
2022/06/04 07:06:36;;;;;;;2.15;0.40;;;21.30;99.90;;;;;;5008424;28;20560;-78
2022/06/04 07:09:05;;;;;;;2.38;0.70;;;21.40;99.90;;;;;;5037271;28;20029;-80
2022/06/04 07:11:31;;;;;;;1.10;0.60;;;21.30;99.90;;;;;;5023300;28;20561;-78
2022/06/04 07:13:57;;;;;;;1.02;0.63;;;20.60;99.90;;;;;;5018764;28;20282;-79
2022/06/04 07:16:24;;;;;;;0.65;0.65;;;20.70;99.90;;;;;;5026283;28;20045;-79
2022/06/04 07:18:50;;;;;;;0.63;0.45;;;21.20;99.90;;;;;;5018473;28;20014;-81
2022/06/04 07:21:16;;;;;;;2.55;0.70;;;22.00;99.90;;;;;;5019053;28;20041;-79
2022/06/04 07:23:42;;;;;;;1.05;0.63;;;22.60;99.90;;;;;;5034981;28;20387;-79
2022/06/04 07:26:08;;;;;;;0.70;0.70;;;23.40;99.90;;;;;;5025505;28;20036;-78
2022/06/04 07:28:37;;;;;;;0.95;0.55;;;24.30;99.90;;;;;;5025755;28;20065;-80
2022/06/04 07:31:04;;;;;;;0.40;0.40;;;24.90;99.90;;;;;;5030892;28;20026;-79
2022/06/04 07:33:30;;;;;;;2.35;0.50;;;25.60;99.90;;;;;;5025915;28;20256;-79
2022/06/04 07:35:55;;;;;;;1.40;0.30;;;26.20;99.90;;;;;;5026199;28;20026;-77
2022/06/04 07:38:21;;;;;;;0.65;0.40;;;26.50;99.90;;;;;;5027396;28;20033;-77
2022/06/04 07:40:47;;;;;;;1.85;0.43;;;26.70;99.90;;;;;;5026997;28;20049;-75
2022/06/04 07:43:13;;;;;;;5.20;1.58;;;27.00;99.90;;;;;;5025992;28;20021;-81
2022/06/04 07:45:40;;;;;;;1.95;0.50;;;27.00;99.90;;;;;;5012937;28;20014;-77
2022/06/04 07:48:06;;;;;;;1.45;0.50;;;26.90;99.90;;;;;;5015782;28;20048;-78
2022/06/04 07:50:33;;;;;;;5.25;0.88;;;26.70;99.90;;;;;;5016834;28;20491;-78
2022/06/04 07:52:59;;;;;;;0.70;0.65;;;26.40;99.90;;;;;;5015024;28;20041;-78
2022/06/04 07:55:25;;;;;;;1.85;0.38;;;27.10;99.90;;;;;;5016010;28;20470;-75
2022/06/04 07:57:51;;;;;;;2.17;0.75;;;27.10;99.90;;;;;;5015428;28;20108;-72
2022/06/04 08:00:19;;;;;;;0.95;0.47;;;27.40;99.90;;;;;;5016300;28;20100;-75
2022/06/04 08:02:46;;;;;;;1.02;0.20;;;27.90;99.70;;;;;;5016301;28;20520;-75
2022/06/04 08:05:13;;;;;;;4.55;0.90;;;28.00;96.10;;;;;;5015010;28;20026;-75
2022/06/04 08:07:39;;;;;;;0.70;0.50;;;27.40;99.90;;;;;;5015174;28;20026;-74
2022/06/04 08:10:08;;;;;;;1.40;0.63;;;26.80;99.90;;;;;;5015662;28;20116;-75
2022/06/04 08:12:34;;;;;;;;;;;26.50;99.90;;;;;;5032622;28;20029;-73
2022/06/04 08:15:02;;;;;;;2.08;0.60;;;26.50;99.90;;;;;;5016679;28;19991;-79
2022/06/04 08:17:30;;;;;;;1.92;0.65;;;26.70;99.90;;;;;;5019413;28;20028;-75
2022/06/04 08:19:56;;;;;;;3.00;0.82;;;26.50;99.90;;;;;;5019015;28;20030;-73
2022/06/04 08:22:22;;;;;;;2.67;0.45;;;26.80;99.90;;;;;;5022508;28;20493;-77
2022/06/04 08:24:48;;;;;;;0.40;0.30;;;27.20;99.90;;;;;;5035095;28;20033;-73
2022/06/04 08:27:14;;;;;;;0.93;0.73;;;27.10;99.90;;;;;;5022320;28;20045;-73
2022/06/04 08:29:40;;;;;;;0.70;0.40;;;27.10;99.90;;;;;;5029705;28;20467;-73
2022/06/04 08:32:06;;;;;;;1.65;0.30;;;27.10;99.90;;;;;;5032499;28;20036;-83
2022/06/04 08:34:32;;;;;;;0.95;0.40;;;26.90;99.90;;;;;;5031254;28;20072;-83
2022/06/04 08:36:59;;;;;;;1.65;0.30;;;27.10;99.90;;;;;;5031060;28;20029;-85
2022/06/04 08:39:27;;;;;;;2.38;0.50;;;27.40;99.90;;;;;;5029441;28;20084;-75
2022/06/04 08:42:05;;;;;;;1.25;0.40;;;27.70;99.90;;;;;;5033269;28;20305;-76
2022/06/04 08:44:35;;;;;;;1.38;0.80;;;27.50;99.90;;;;;;5032019;28;20021;-77
2022/06/04 08:47:07;;;;;;;0.98;0.77;;;27.60;99.90;;;;;;5034046;28;20228;-76
2022/06/04 08:49:42;;;;;;;0.60;0.50;;;27.90;99.90;;;;;;5048416;28;20025;-77
2022/06/04 08:52:15;;;;;;;5.30;0.50;;;27.60;99.90;;;;;;5048532;28;20029;-75
2022/06/04 08:57:41;;;;;;;1.52;0.20;;;27.10;99.90;;;;;;5032186;28;20072;-81
2022/06/04 09:00:10;;;;;;;3.25;1.30;;;27.00;99.90;;;;;;5048692;28;20036;-85
2022/06/04 09:03:17;;;;;;;0.85;0.40;;;26.80;99.90;;;;;;5032751;28;20025;-87
2022/06/04 09:06:01;;;;;;;1.77;0.90;;;26.80;99.90;;;;;;5032603;28;20052;-79
2022/06/04 09:08:41;;;;;;;0.75;0.50;;;27.00;99.90;;;;;;5023146;28;20033;-80
2022/06/04 09:11:21;;;;;;;1.58;0.50;;;27.20;99.90;;;;;;5018568;28;20026;-78
2022/06/04 09:14:02;;;;;;;0.57;0.40;;;27.50;99.90;;;;;;5022478;28;20026;-79
2022/06/04 09:16:36;;;;;;;1.88;0.82;;;27.40;99.90;;;;;;5041440;28;20049;-83
2022/06/04 09:19:10;;;;;;;4.15;1.05;;;27.40;99.90;;;;;;5026293;28;20929;-77
2022/06/04 09:21:38;;;;;;;1.27;0.82;;;26.90;99.90;;;;;;5031555;28;20033;-77
2022/06/04 09:24:05;;;;;;;3.47;0.60;;;27.00;99.90;;;;;;5030037;28;20014;-76
2022/06/04 09:26:34;;;;;;;2.90;0.70;;;25.70;99.90;;;;;;5031196;28;20266;-77
2022/06/04 09:29:12;;;;;;;2.08;0.73;;;25.20;99.90;;;;;;5027579;28;20206;-76
2022/06/04 09:31:44;;;;;;;2.92;0.95;;;25.40;99.90;;;;;;5030514;28;20021;-81
2022/06/04 09:34:22;;;;;;;3.10;1.38;;;25.60;99.90;;;;;;5022080;28;20397;-80
2022/06/04 09:36:49;;;;;;;2.22;0.80;;;25.50;99.90;;;;;;5025988;28;20038;-78
2022/06/04 09:39:19;;;;;;;0.70;0.65;;;25.10;99.90;;;;;;5028010;28;20006;-80
2022/06/04 09:42:00;;;;;;;1.70;1.20;;;24.80;99.90;;;;;;5027870;28;20025;-80
2022/06/04 09:44:28;;;;;;;1.75;0.80;;;24.80;99.90;;;;;;5036824;28;20032;-85
2022/06/04 09:47:07;;;;;;;1.17;0.70;;;24.80;99.90;;;;;;5026415;28;20083;-80
2022/06/04 09:49:42;;;;;;;4.55;0.70;;;25.10;99.90;;;;;;5026305;28;20064;-80
2022/06/04 09:52:39;;;;;;;1.83;0.50;;;24.90;99.90;;;;;;5029107;28;20029;-79
2022/06/04 09:55:15;;;;;;;2.45;1.08;;;25.50;99.90;;;;;;5031715;28;20018;-82
2022/06/04 09:57:41;;;;;;;2.67;0.60;;;25.50;99.90;;;;;;5031307;28;20037;-79
2022/06/04 10:00:20;;;;;;;1.05;0.45;;;26.20;99.90;;;;;;5030105;28;20500;-79
2022/06/04 10:03:01;;;;;;;1.02;0.70;;;26.00;99.90;;;;;;5030140;28;20390;-81
2022/06/04 10:05:30;;;;;;;2.63;0.70;;;26.10;99.90;;;;;;5029595;28;20037;-79
2022/06/04 10:07:57;;;;;;;1.05;0.60;;;26.10;99.90;;;;;;5029875;28;20018;-79
2022/06/04 10:10:38;;;;;;;1.55;0.43;;;26.60;99.90;;;;;;5027941;28;20052;-81
2022/06/04 10:13:42;;;;;;;2.45;0.90;;;26.30;99.90;;;;;;5031020;28;20468;-79
2022/06/04 10:16:19;;;;;;;2.05;0.70;;;25.80;99.90;;;;;;5025278;28;20045;-79
2022/06/04 10:19:18;;;;;;;2.28;0.73;;;25.80;99.90;;;;;;5029696;28;20049;-79
2022/06/04 10:21:50;;;;;;;2.22;0.52;;;25.50;99.90;;;;;;5030470;28;20097;-74
2022/06/04 10:24:24;;;;;;;0.63;0.63;;;25.50;99.90;;;;;;5030725;28;20033;-77
2022/06/04 10:27:02;;;;;;;1.52;0.65;;;25.70;99.90;;;;;;5029171;28;20029;-74
2022/06/04 10:29:36;;;;;;;1.83;1.38;;;25.60;99.90;;;;;;5030505;28;20040;-75
2022/06/04 10:32:11;;;;;;;1.00;0.90;;;25.50;99.90;;;;;;5030409;28;20030;-75
2022/06/04 10:35:16;;;;;;;1.38;0.57;;;25.40;99.90;;;;;;5029799;28;20028;-75
2022/06/04 10:37:53;;;;;;;3.17;0.60;;;25.80;99.90;;;;;;4994956;28;20042;-77
2022/06/04 10:40:36;;;;;;;0.40;0.40;;;25.80;99.90;;;;;;5030145;28;20025;-76
2022/06/04 10:43:34;;;;;;;3.60;1.00;;;26.00;99.90;;;;;;5029006;28;20035;-87
2022/06/04 10:46:08;;;;;;;1.70;0.63;;;26.30;99.90;;;;;;4998162;28;20033;-81
2022/06/04 10:48:58;;;;;;;3.38;0.70;;;26.40;99.90;;;;;;5029348;28;20601;-80
2022/06/04 10:51:58;;;;;;;1.45;0.85;;;26.50;99.90;;;;;;5036505;28;20297;-82
2022/06/04 10:54:37;;;;;;;1.85;0.73;;;26.40;99.90;;;;;;5009527;28;20042;-81
2022/06/04 10:57:05;;;;;;;1.83;0.70;;;26.60;99.90;;;;;;5025218;28;20030;-81
2022/06/04 10:59:40;;;;;;;1.88;1.30;;;26.30;99.90;;;;;;5029034;28;20906;-80
2022/06/04 11:02:30;;;;;;;4.97;1.02;;;26.50;99.90;;;;;;5032322;28;20018;-80
2022/06/04 11:04:59;;;;;;;4.78;1.52;;;26.40;99.90;;;;;;5028566;28;20071;-80
2022/06/04 11:07:28;;;;;;;4.43;1.77;;;26.40;99.90;;;;;;5028694;28;20037;-78
2022/06/04 11:09:55;;;;;;;0.70;0.70;;;26.60;99.90;;;;;;5030098;28;20036;-78
2022/06/04 11:12:59;;;;;;;1.20;0.90;;;26.90;99.90;;;;;;5024561;28;20040;-78
2022/06/04 11:15:52;;;;;;;4.93;1.20;;;26.40;99.90;;;;;;5038864;28;20056;-81
2022/06/04 11:18:27;;;;;;;3.03;0.80;;;26.90;99.90;;;;;;5021453;28;20034;-79
2022/06/04 11:21:01;;;;;;;5.07;1.70;;;26.60;99.90;;;;;;5039551;28;20310;-79
2022/06/04 11:23:55;;;;;;;3.42;0.98;;;26.30;99.90;;;;;;5015313;28;20028;-79
2022/06/04 11:26:30;;;;;;;2.15;0.90;;;26.80;99.90;;;;;;5019136;28;20091;-79
2022/06/04 11:28:59;;;;;;;2.13;0.57;;;26.80;99.90;;;;;;5015993;28;20379;-79
2022/06/04 11:31:40;;;;;;;5.97;1.45;;;26.60;99.90;;;;;;5032216;28;20100;-78
2022/06/04 11:34:05;;;;;;;1.13;0.70;;;26.80;99.90;;;;;;5032159;28;20087;-78
2022/06/04 11:36:49;;;;;;;1.08;0.70;;;26.50;99.90;;;;;;5032843;28;20433;-79
2022/06/04 11:39:33;;;;;;;1.13;0.70;;;26.20;99.90;;;;;;5032217;28;20041;-79
2022/06/04 11:42:07;;;;;;;1.13;1.00;;;26.30;99.90;;;;;;5021844;28;20022;-78
2022/06/04 11:44:45;;;;;;;4.30;2.08;;;26.40;99.90;;;;;;5027593;28;20464;-78
2022/06/04 11:47:29;;;;;;;1.23;0.90;;;26.40;99.90;;;;;;5013984;28;20431;-79
2022/06/04 11:50:21;;;;;;;2.05;1.60;;;26.80;99.90;;;;;;5029823;28;20367;-77
2022/06/04 11:52:49;;;;;;;1.73;1.20;;;26.80;99.90;;;;;;5015933;28;20218;-78
2022/06/04 11:55:25;;;;;;;1.90;1.43;;;26.40;99.90;;;;;;5020502;28;20030;-79
2022/06/04 11:57:59;;;;;;;1.77;1.45;;;26.50;99.90;;;;;;5028566;28;20030;-78
2022/06/04 12:00:32;;;;;;;3.88;2.10;;;26.30;99.90;;;;;;5032425;28;20031;-77
2022/06/04 12:03:13;;;;;;;2.50;1.50;;;26.60;99.90;;;;;;5032136;28;20025;-77
2022/06/04 12:05:42;;;;;;;5.88;2.47;;;26.50;99.90;;;;;;5048424;28;20116;-77
2022/06/04 12:08:12;;;;;;;2.00;1.67;;;26.70;99.90;;;;;;5036031;28;20052;-80
2022/06/04 12:10:50;;;;;;;3.55;1.92;;;27.10;99.90;;;;;;5035764;28;20274;-78
2022/06/04 12:13:16;;;;;;;2.72;1.65;;;26.80;99.90;;;;;;5033844;28;20416;-78
2022/06/04 12:16:00;;;;;;;4.63;2.10;;;26.30;99.90;;;;;;5048415;28;20037;-77
2022/06/04 12:18:40;;;;;;;6.75;2.45;;;26.60;99.90;;;;;;5047871;28;20029;-78
2022/06/04 12:24:27;;;;;;;5.30;1.60;;;26.80;99.90;;;;;;5031405;28;20038;-78
2022/06/04 12:27:20;;;;;;;4.00;1.90;;;27.00;99.90;;;;;;5031262;28;20026;-78
2022/06/04 12:29:49;;;;;;;2.35;1.88;;;26.60;99.90;;;;;;5030674;28;20025;-78
2022/06/04 12:32:31;;;;;;;4.32;1.50;;;26.60;99.90;;;;;;5030806;28;20521;-77
2022/06/04 12:35:22;;;;;;;2.65;1.02;;;26.60;99.90;;;;;;5030493;28;20036;-78
2022/06/04 12:37:54;;;;;;;2.42;1.83;;;27.20;99.90;;;;;;5023314;28;20045;-85
2022/06/04 12:40:19;;;;;;;2.75;1.50;;;27.50;92.70;;;;;;5044777;28;20087;-76
2022/06/04 12:43:01;;;;;;;3.33;1.73;;;28.00;90.50;;;;;;5030534;28;20414;-79
2022/06/04 12:45:35;;;;;;;2.97;1.50;;;28.10;86.40;;;;;;5030134;28;20040;-77
2022/06/04 12:48:01;;;;;;;2.28;1.73;;;27.90;79.30;;;;;;5045683;28;20026;-75
2022/06/04 12:50:31;;;;;;;2.75;1.65;;;28.10;78.30;;;;;;5024886;28;20116;-75
2022/06/04 12:53:07;;;;;;;3.22;1.45;;;27.70;79.90;;;;;;5009310;28;20065;-76
2022/06/04 12:55:38;;;;;;;2.63;1.45;;;27.80;89.80;;;;;;5010477;28;20478;-76
2022/06/04 12:58:22;;;;;;;3.60;1.20;;;27.40;96.30;;;;;;5008957;28;20044;-76
2022/06/04 13:01:20;;;;;;;2.08;1.60;;;27.60;92.90;;;;;;5010359;28;20036;-77
2022/06/04 13:04:03;;;;;;;1.23;1.00;;;27.80;79.80;;;;;;5012286;28;20056;-77
2022/06/04 13:06:34;;;;;;;9.43;2.28;;;28.50;83.90;;;;;;5009100;28;20294;-76
2022/06/04 13:09:24;;;;;;;1.95;1.75;;;28.30;75.70;;;;;;5010239;28;20026;-76
2022/06/04 13:12:08;;;;;;;2.88;1.23;;;28.50;69.80;;;;;;5010252;28;20463;-76
2022/06/04 13:14:42;;;;;;;4.90;2.15;;;28.60;65.20;;;;;;5008678;28;20042;-76
2022/06/04 13:17:41;;;;;;;2.53;1.83;;;28.60;66.30;;;;;;5023222;28;20056;-75
2022/06/04 13:20:34;;;;;;;1.47;1.30;;;28.40;66.20;;;;;;5044765;28;20025;-74
2022/06/04 13:23:21;;;;;;;2.67;1.50;;;28.50;65.10;;;;;;5044943;28;20029;-74
2022/06/04 13:25:59;;;;;;;3.42;1.80;;;28.40;72.00;;;;;;5028105;28;20025;-74